Time;durP1;ratioP1;P1;durP2;ratioP2;P2;SDS_P1;SDS_P2;PMS_P1;PMS_P2;Temp;Humidity;BMP_temperature;BMP_pressure;BME280_temperature;BME280_humidity;BME280_pressure;Samples;Min_cycle;Max_cycle;Signal;HPM_P1;HPM_P2
2023/10/05 00:03:39;;;;;;;0.15;0.10;;;13.00;99.90;;;;;;5001111;28;20048;-72
2023/10/05 00:06:14;;;;;;;0.57;0.20;;;13.00;99.90;;;;;;5010018;28;20057;-72
2023/10/05 00:08:49;;;;;;;0.10;0.00;;;13.00;99.90;;;;;;5000681;28;20153;-72
2023/10/05 00:11:29;;;;;;;3.42;0.25;;;13.00;99.90;;;;;;5000212;28;20046;-73
2023/10/05 00:13:59;;;;;;;0.40;0.20;;;13.00;99.90;;;;;;4997540;28;20034;-73
2023/10/05 00:16:36;;;;;;;1.88;0.30;;;13.00;99.90;;;;;;5002213;28;20061;-73
2023/10/05 00:19:13;;;;;;;0.80;0.10;;;13.00;99.90;;;;;;5007031;28;20415;-72
2023/10/05 00:21:56;;;;;;;1.77;0.30;;;13.00;99.90;;;;;;5006682;28;20486;-72
2023/10/05 00:24:46;;;;;;;1.00;0.25;;;13.00;99.90;;;;;;5008642;28;20050;-73
2023/10/05 00:27:09;;;;;;;1.85;0.40;;;13.00;99.90;;;;;;5006097;28;20042;-72
2023/10/05 00:29:49;;;;;;;4.43;0.20;;;13.00;99.90;;;;;;5012248;28;20042;-71
2023/10/05 00:32:19;;;;;;;1.05;0.28;;;13.00;99.90;;;;;;5006113;28;20065;-71
2023/10/05 00:34:51;;;;;;;3.85;0.47;;;13.00;99.90;;;;;;5012670;28;20573;-71
2023/10/05 00:37:17;;;;;;;1.23;0.47;;;13.00;99.90;;;;;;4994586;28;20465;-72
2023/10/05 00:39:50;;;;;;;0.38;0.10;;;13.00;99.90;;;;;;5001757;28;20046;-72
2023/10/05 00:42:16;;;;;;;0.52;0.10;;;13.10;99.90;;;;;;4999020;28;20051;-72
2023/10/05 00:44:43;;;;;;;0.77;0.20;;;13.10;99.90;;;;;;5009574;28;20068;-72
2023/10/05 00:47:13;;;;;;;1.80;0.40;;;13.10;99.90;;;;;;4990662;28;20038;-72
2023/10/05 00:49:52;;;;;;;0.98;0.20;;;13.10;99.90;;;;;;5003667;28;20541;-72
2023/10/05 00:52:24;;;;;;;3.38;0.63;;;13.10;99.90;;;;;;5000367;28;20045;-73
2023/10/05 00:54:52;;;;;;;0.17;0.10;;;13.10;99.90;;;;;;5014252;28;20054;-73
2023/10/05 00:57:22;;;;;;;0.55;0.20;;;13.10;99.90;;;;;;5002106;28;20466;-73
2023/10/05 01:02:31;;;;;;;0.55;0.30;;;13.10;99.90;;;;;;4999961;28;20041;-73
2023/10/05 01:05:09;;;;;;;4.25;0.45;;;13.10;99.90;;;;;;5000933;28;20035;-73
2023/10/05 01:10:44;;;;;;;9.10;0.82;;;13.10;99.90;;;;;;4978297;28;20046;-73
2023/10/05 01:13:31;;;;;;;0.88;0.30;;;13.10;99.90;;;;;;5000524;28;20083;-73
2023/10/05 01:15:57;;;;;;;1.95;0.25;;;13.10;99.90;;;;;;4988999;28;20082;-73
2023/10/05 01:18:27;;;;;;;0.20;0.10;;;13.10;99.90;;;;;;4998488;28;20093;-73
2023/10/05 01:20:57;;;;;;;2.90;0.10;;;13.20;99.90;;;;;;4988648;28;20121;-72
2023/10/05 01:23:38;;;;;;;0.10;0.00;;;13.20;99.90;;;;;;4997539;28;20475;-72
2023/10/05 01:26:10;;;;;;;4.40;0.50;;;13.20;99.90;;;;;;4988118;28;20034;-73
2023/10/05 01:28:41;;;;;;;3.58;0.40;;;13.20;99.90;;;;;;4996826;28;20061;-72
2023/10/05 01:31:12;;;;;;;3.22;0.38;;;13.20;99.90;;;;;;4995881;28;20106;-72
2023/10/05 01:33:37;;;;;;;2.72;0.75;;;13.20;99.90;;;;;;5002730;28;20486;-72
2023/10/05 01:36:04;;;;;;;1.48;0.20;;;13.20;99.90;;;;;;5002921;28;20057;-72
2023/10/05 01:38:37;;;;;;;1.63;0.30;;;13.20;99.90;;;;;;4990327;28;20053;-72
2023/10/05 01:41:04;;;;;;;1.30;0.33;;;13.20;99.90;;;;;;5001576;28;20518;-72
2023/10/05 01:43:30;;;;;;;0.65;0.20;;;13.20;99.90;;;;;;4999757;28;20058;-72
2023/10/05 01:45:56;;;;;;;0.77;0.20;;;13.20;99.90;;;;;;4999262;28;20037;-72
2023/10/05 01:48:27;;;;;;;0.30;0.10;;;13.20;99.90;;;;;;4998314;28;20538;-72
2023/10/05 01:50:53;;;;;;;2.03;1.02;;;13.20;99.90;;;;;;4986943;28;20388;-72
2023/10/05 01:53:19;;;;;;;0.38;0.17;;;13.20;99.90;;;;;;5004339;28;20111;-72
2023/10/05 01:55:49;;;;;;;1.92;0.20;;;13.20;99.90;;;;;;5000760;28;20490;-73
2023/10/05 01:58:24;;;;;;;0.43;0.30;;;13.20;99.90;;;;;;4996114;28;20079;-73
2023/10/05 02:00:50;;;;;;;0.98;0.30;;;13.30;99.90;;;;;;5001749;28;20041;-72
2023/10/05 02:03:18;;;;;;;0.55;0.20;;;13.20;99.90;;;;;;4998290;28;20444;-72
2023/10/05 02:05:46;;;;;;;1.33;0.25;;;13.20;99.90;;;;;;5000258;28;20161;-72
2023/10/05 02:08:14;;;;;;;2.50;0.10;;;13.20;99.90;;;;;;4994901;28;20046;-72
2023/10/05 02:10:40;;;;;;;0.60;0.20;;;13.20;99.90;;;;;;4999709;28;20053;-72
2023/10/05 02:13:12;;;;;;;1.92;0.25;;;13.20;99.90;;;;;;5004975;28;20047;-72
2023/10/05 02:15:41;;;;;;;0.57;0.13;;;13.10;99.90;;;;;;4999510;28;20147;-72
2023/10/05 02:18:31;;;;;;;1.42;0.35;;;13.10;99.90;;;;;;4997290;28;20106;-72
2023/10/05 02:21:05;;;;;;;0.75;0.20;;;13.10;99.90;;;;;;5006052;28;20128;-72
2023/10/05 02:23:37;;;;;;;0.35;0.10;;;13.00;99.90;;;;;;5004550;28;20061;-73
2023/10/05 02:28:47;;;;;;;0.30;0.10;;;13.00;99.90;;;;;;5002662;28;20165;-73
2023/10/05 02:31:13;;;;;;;1.98;0.43;;;13.00;99.90;;;;;;5001129;28;20077;-73
2023/10/05 02:33:40;;;;;;;1.00;0.63;;;13.00;99.90;;;;;;4999372;28;20046;-73
2023/10/05 02:36:26;;;;;;;4.57;0.28;;;13.00;99.90;;;;;;4992991;28;20136;-73
2023/10/05 02:38:56;;;;;;;2.25;0.50;;;13.00;99.90;;;;;;4998232;28;20124;-73
2023/10/05 02:41:38;;;;;;;3.58;0.43;;;13.00;99.90;;;;;;5006353;28;20056;-73
2023/10/05 02:44:17;;;;;;;1.67;0.50;;;13.00;99.90;;;;;;4996241;28;20049;-73
2023/10/05 02:46:47;;;;;;;2.10;0.20;;;13.00;99.90;;;;;;4997430;28;20042;-73
2023/10/05 02:49:15;;;;;;;4.85;0.47;;;13.10;99.90;;;;;;4998444;28;20065;-73
2023/10/05 02:51:43;;;;;;;5.70;0.60;;;13.20;99.90;;;;;;4998967;28;20081;-73
2023/10/05 02:54:10;;;;;;;0.43;0.20;;;13.20;99.90;;;;;;4998966;28;20062;-73
2023/10/05 02:56:37;;;;;;;1.25;0.30;;;13.20;99.90;;;;;;5005561;28;20041;-73
2023/10/05 02:59:07;;;;;;;1.92;0.30;;;13.20;99.90;;;;;;4997232;28;20046;-73
2023/10/05 03:01:34;;;;;;;2.15;0.20;;;13.30;99.90;;;;;;5000538;28;20081;-73
2023/10/05 03:04:09;;;;;;;0.90;0.08;;;13.20;99.90;;;;;;5000070;28;20046;-73
2023/10/05 03:06:36;;;;;;;0.05;0.00;;;13.30;99.90;;;;;;4996891;28;20409;-73
2023/10/05 03:09:08;;;;;;;0.63;0.30;;;13.30;99.90;;;;;;4998882;28;20050;-73
2023/10/05 03:11:38;;;;;;;1.27;0.30;;;13.30;99.90;;;;;;4997666;28;20629;-73
2023/10/05 03:14:04;;;;;;;0.63;0.20;;;13.30;99.90;;;;;;4997583;28;20042;-73
2023/10/05 03:16:35;;;;;;;0.95;0.20;;;13.30;99.90;;;;;;4994779;28;20101;-73
2023/10/05 03:19:01;;;;;;;0.90;0.20;;;13.30;99.90;;;;;;5003174;28;20294;-73
2023/10/05 03:21:26;;;;;;;0.50;0.32;;;13.30;99.90;;;;;;4999983;28;20544;-73
2023/10/05 03:23:52;;;;;;;0.70;0.20;;;13.20;99.90;;;;;;5002401;28;20042;-73
2023/10/05 03:26:18;;;;;;;2.00;0.60;;;13.20;99.90;;;;;;5000723;28;20037;-73
2023/10/05 03:28:45;;;;;;;0.95;0.22;;;13.20;99.90;;;;;;4999536;28;20431;-73
2023/10/05 03:31:19;;;;;;;3.15;0.70;;;13.20;99.90;;;;;;4992398;28;20368;-73
2023/10/05 03:33:46;;;;;;;0.20;0.10;;;13.20;99.90;;;;;;4998639;28;20069;-73
2023/10/05 03:36:16;;;;;;;2.53;0.20;;;13.10;99.90;;;;;;5000463;28;20050;-73
2023/10/05 03:38:43;;;;;;;0.25;0.08;;;13.10;99.90;;;;;;5002474;28;20149;-73
2023/10/05 03:41:15;;;;;;;1.38;0.40;;;13.10;99.90;;;;;;4993875;28;20478;-73
2023/10/05 03:43:43;;;;;;;1.55;0.20;;;13.00;99.90;;;;;;5011105;28;20138;-74
2023/10/05 03:46:09;;;;;;;0.17;0.10;;;13.00;99.90;;;;;;5001381;28;20042;-73
2023/10/05 03:48:44;;;;;;;0.50;0.20;;;13.00;99.90;;;;;;5000599;28;20045;-73
2023/10/05 03:51:15;;;;;;;0.17;0.10;;;12.90;99.90;;;;;;5004751;28;20037;-73
2023/10/05 03:53:48;;;;;;;0.80;0.20;;;12.90;99.90;;;;;;5001258;28;20076;-73
2023/10/05 03:56:19;;;;;;;0.60;0.25;;;12.90;99.90;;;;;;5006581;28;20121;-73
2023/10/05 03:58:47;;;;;;;0.73;0.30;;;12.90;99.90;;;;;;5004621;28;20034;-73
2023/10/05 04:01:13;;;;;;;6.28;0.40;;;12.90;99.90;;;;;;5004166;28;20042;-73
2023/10/05 04:03:40;;;;;;;0.98;0.08;;;12.90;99.90;;;;;;5003992;28;20495;-73
2023/10/05 04:06:17;;;;;;;1.23;0.10;;;12.90;99.90;;;;;;5001767;28;20462;-73
2023/10/05 04:08:45;;;;;;;1.20;0.30;;;12.90;99.90;;;;;;5003258;28;20111;-73
2023/10/05 04:11:11;;;;;;;2.33;0.30;;;12.90;99.90;;;;;;4997377;28;20046;-73
2023/10/05 04:13:38;;;;;;;0.55;0.17;;;12.90;99.90;;;;;;4995363;28;20042;-73
2023/10/05 04:16:09;;;;;;;0.10;0.05;;;12.90;99.90;;;;;;5006695;28;20048;-73
2023/10/05 04:18:35;;;;;;;0.40;0.15;;;12.90;99.90;;;;;;5001443;28;20067;-73
2023/10/05 04:21:00;;;;;;;0.68;0.30;;;12.90;99.90;;;;;;4973145;28;20058;-73
2023/10/05 04:23:27;;;;;;;0.68;0.20;;;12.90;99.90;;;;;;5007419;28;20050;-73
2023/10/05 04:25:55;;;;;;;10.38;0.60;;;12.80;99.90;;;;;;5003925;28;20112;-73
2023/10/05 04:28:31;;;;;;;1.08;0.30;;;12.80;99.90;;;;;;5006678;28;20052;-73
2023/10/05 04:30:57;;;;;;;1.15;0.35;;;12.80;99.90;;;;;;5005269;28;20052;-73
2023/10/05 04:33:26;;;;;;;3.55;0.22;;;12.70;99.90;;;;;;5007178;28;20138;-73
2023/10/05 04:35:52;;;;;;;1.02;0.40;;;12.70;99.90;;;;;;5008356;28;20044;-73
2023/10/05 04:38:25;;;;;;;1.52;0.45;;;12.70;99.90;;;;;;5006135;28;20100;-73
2023/10/05 04:40:51;;;;;;;0.45;0.20;;;12.60;99.90;;;;;;5004450;28;20034;-74
2023/10/05 04:43:19;;;;;;;0.20;0.20;;;12.60;99.90;;;;;;5001108;28;20109;-73
2023/10/05 04:45:46;;;;;;;0.52;0.32;;;12.60;99.90;;;;;;5004226;28;20482;-74
2023/10/05 04:48:15;;;;;;;8.63;0.47;;;12.50;99.90;;;;;;4997119;28;20046;-73
2023/10/05 04:50:41;;;;;;;1.92;0.30;;;12.50;99.90;;;;;;5003128;28;20513;-73
2023/10/05 04:53:11;;;;;;;0.17;0.10;;;12.50;99.90;;;;;;5004898;28;20038;-73
2023/10/05 04:55:42;;;;;;;3.17;0.30;;;12.40;99.90;;;;;;4989417;28;20077;-73
2023/10/05 04:58:53;;;;;;;0.57;0.20;;;12.40;99.90;;;;;;5002168;28;20471;-73
2023/10/05 05:06:20;;;;;;;0.32;0.10;;;12.40;99.90;;;;;;4974871;28;20303;-73
2023/10/05 05:08:46;;;;;;;6.43;0.70;;;12.50;99.90;;;;;;5008340;28;20049;-73
2023/10/05 05:11:18;;;;;;;0.08;0.03;;;12.60;99.90;;;;;;4996615;28;20042;-73
2023/10/05 05:13:51;;;;;;;2.17;0.28;;;12.60;99.90;;;;;;5005764;28;20035;-72
2023/10/05 05:16:17;;;;;;;0.57;0.32;;;12.60;99.90;;;;;;4998961;28;20070;-72
2023/10/05 05:18:43;;;;;;;1.13;0.55;;;12.70;99.90;;;;;;4998012;28;20068;-72
2023/10/05 05:21:12;;;;;;;0.82;0.28;;;12.70;99.90;;;;;;5006011;28;20038;-72
2023/10/05 05:23:39;;;;;;;0.98;0.63;;;12.80;99.90;;;;;;5000491;28;20069;-72
2023/10/05 05:26:09;;;;;;;1.90;0.25;;;12.80;99.90;;;;;;4999262;28;20057;-72
2023/10/05 05:28:37;;;;;;;2.00;0.80;;;12.80;99.90;;;;;;5008984;28;20046;-72
2023/10/05 05:31:16;;;;;;;1.30;0.20;;;12.90;99.90;;;;;;5006618;28;20062;-72
2023/10/05 05:33:44;;;;;;;1.95;0.30;;;12.90;99.90;;;;;;5006064;28;20050;-72
2023/10/05 05:36:11;;;;;;;1.38;0.70;;;12.90;99.90;;;;;;5004723;28;20085;-73
2023/10/05 05:38:40;;;;;;;1.92;0.30;;;12.90;99.90;;;;;;5000600;28;20129;-72
2023/10/05 05:41:11;;;;;;;0.95;0.20;;;13.00;99.90;;;;;;4989635;28;20056;-72
2023/10/05 05:43:39;;;;;;;1.40;0.20;;;13.00;99.90;;;;;;5011301;28;20042;-72
2023/10/05 05:46:10;;;;;;;1.50;0.20;;;13.00;99.90;;;;;;5002223;28;20153;-72
2023/10/05 05:48:36;;;;;;;1.70;0.40;;;13.10;99.90;;;;;;5007632;28;20154;-72
2023/10/05 05:51:10;;;;;;;1.38;0.38;;;13.10;99.90;;;;;;5010238;28;20054;-71
2023/10/05 05:53:37;;;;;;;3.70;0.75;;;13.10;99.90;;;;;;5011440;28;20444;-73
2023/10/05 05:56:03;;;;;;;1.27;0.20;;;13.10;99.90;;;;;;5005492;28;20125;-73
2023/10/05 05:58:29;;;;;;;1.75;0.25;;;13.20;99.90;;;;;;5008567;28;20038;-73
2023/10/05 06:00:57;;;;;;;1.48;0.40;;;13.20;99.90;;;;;;5008148;28;20046;-73
2023/10/05 06:03:24;;;;;;;5.93;0.73;;;13.20;99.90;;;;;;5004982;28;20053;-73
2023/10/05 06:05:51;;;;;;;0.60;0.25;;;13.20;99.90;;;;;;5000716;28;20424;-72
2023/10/05 06:08:17;;;;;;;1.35;0.30;;;13.30;99.90;;;;;;5003823;28;20085;-73
2023/10/05 06:10:46;;;;;;;0.50;0.20;;;13.30;99.90;;;;;;5007506;28;20037;-73
2023/10/05 06:13:11;;;;;;;1.38;0.43;;;13.30;99.90;;;;;;5010935;28;20734;-72
2023/10/05 06:15:41;;;;;;;1.10;0.22;;;13.30;99.90;;;;;;5006290;28;20053;-72
2023/10/05 06:18:07;;;;;;;4.65;0.68;;;13.40;99.90;;;;;;5013207;28;20538;-73
2023/10/05 06:23:03;;;;;;;0.10;0.03;;;13.40;99.90;;;;;;4985036;28;20102;-89
2023/10/05 06:25:31;;;;;;;2.55;0.28;;;13.40;99.90;;;;;;5003045;28;20086;-90
2023/10/05 06:27:57;;;;;;;1.48;0.32;;;13.50;99.90;;;;;;4965897;28;20133;-90
2023/10/05 06:30:23;;;;;;;1.75;0.50;;;13.50;99.90;;;;;;4949453;28;20045;-91
2023/10/05 06:32:49;;;;;;;4.35;0.40;;;13.50;99.90;;;;;;4979794;28;20121;-91
2023/10/05 06:35:17;;;;;;;0.57;0.40;;;13.60;99.90;;;;;;4968734;28;20039;-91
2023/10/05 06:37:43;;;;;;;0.95;0.25;;;13.60;99.90;;;;;;4985507;28;20047;-90
2023/10/05 06:40:12;;;;;;;3.08;0.50;;;13.70;99.90;;;;;;4955694;28;20046;-90
2023/10/05 06:42:42;;;;;;;1.08;0.30;;;13.70;99.90;;;;;;4969462;28;20046;-88
2023/10/05 06:45:13;;;;;;;1.08;0.40;;;13.70;99.90;;;;;;4964305;28;20062;-91
2023/10/05 06:47:39;;;;;;;1.27;0.45;;;13.70;99.90;;;;;;4978654;28;20034;-87
2023/10/05 06:50:11;;;;;;;3.92;0.60;;;13.80;99.90;;;;;;4949863;28;20051;-87
2023/10/05 06:52:43;;;;;;;2.38;0.08;;;13.80;99.90;;;;;;4976222;28;20046;-89
2023/10/05 06:55:11;;;;;;;3.65;0.50;;;13.90;99.90;;;;;;4971569;28;20054;-89
2023/10/05 06:57:38;;;;;;;1.48;0.32;;;13.90;99.90;;;;;;4967585;28;20054;-90
2023/10/05 07:00:12;;;;;;;2.33;0.47;;;14.00;99.90;;;;;;4969089;28;20074;-91
2023/10/05 07:02:41;;;;;;;2.97;0.43;;;14.10;99.90;;;;;;4962207;28;20062;-88
2023/10/05 07:05:07;;;;;;;1.75;0.38;;;14.10;99.90;;;;;;4978250;28;20042;-88
2023/10/05 07:07:35;;;;;;;3.30;0.52;;;14.10;99.90;;;;;;4974787;28;20099;-89
2023/10/05 07:10:03;;;;;;;5.40;0.93;;;14.20;99.90;;;;;;4975500;28;20089;-89
2023/10/05 07:12:35;;;;;;;2.33;0.70;;;14.20;99.90;;;;;;4979648;28;20069;-90
2023/10/05 07:15:05;;;;;;;1.65;0.40;;;14.20;99.90;;;;;;4975959;28;20099;-89
2023/10/05 07:17:32;;;;;;;2.90;0.73;;;14.20;99.90;;;;;;4960648;28;20054;-89
2023/10/05 07:19:58;;;;;;;3.70;0.70;;;14.30;99.90;;;;;;4975740;28;20073;-89
2023/10/05 07:22:25;;;;;;;2.10;0.47;;;14.30;99.90;;;;;;4999372;28;20045;-93
2023/10/05 07:24:50;;;;;;;2.90;0.60;;;14.30;99.90;;;;;;5027957;28;20038;-88
2023/10/05 07:27:18;;;;;;;0.90;0.20;;;14.40;99.90;;;;;;5012093;28;20037;-89
2023/10/05 07:29:45;;;;;;;1.08;0.20;;;14.40;99.90;;;;;;5030046;28;20074;-88
2023/10/05 07:32:14;;;;;;;0.57;0.20;;;14.50;99.90;;;;;;5012648;28;20030;-88
2023/10/05 07:34:41;;;;;;;2.25;0.30;;;14.50;99.90;;;;;;5011656;28;20051;-89
2023/10/05 07:44:53;;;;;;;1.60;0.60;;;14.80;99.90;;;;;;4832647;23;20038;-74
2023/10/05 07:47:19;;;;;;;1.70;0.38;;;14.80;99.90;;;;;;5007885;28;20094;-74
2023/10/05 07:49:45;;;;;;;0.70;0.30;;;14.90;99.90;;;;;;4994522;28;20038;-74
2023/10/05 07:52:11;;;;;;;2.08;0.60;;;14.90;99.90;;;;;;4998314;28;20044;-74
2023/10/05 07:54:38;;;;;;;3.65;0.73;;;15.00;99.90;;;;;;4998400;28;20047;-74
2023/10/05 07:57:09;;;;;;;3.38;0.30;;;15.00;99.90;;;;;;4990033;28;20077;-74
2023/10/05 07:59:42;;;;;;;1.65;0.28;;;15.10;99.90;;;;;;4980008;28;20117;-74
2023/10/05 08:02:10;;;;;;;3.97;0.85;;;15.10;99.90;;;;;;4966218;28;20115;-74
2023/10/05 08:04:36;;;;;;;0.43;0.30;;;15.20;99.90;;;;;;4963730;28;20044;-74
2023/10/05 08:07:03;;;;;;;1.75;0.43;;;15.30;99.90;;;;;;4967427;28;20108;-74
2023/10/05 08:09:29;;;;;;;0.95;0.43;;;15.40;99.90;;;;;;4967815;28;20066;-74
2023/10/05 08:11:56;;;;;;;1.25;0.70;;;15.50;99.90;;;;;;4944347;28;20034;-74
2023/10/05 08:14:26;;;;;;;0.98;0.43;;;15.50;99.90;;;;;;4965708;28;20070;-74
2023/10/05 08:16:52;;;;;;;2.83;0.25;;;15.50;99.90;;;;;;4965547;28;20038;-73
2023/10/05 08:19:24;;;;;;;0.70;0.25;;;15.60;99.90;;;;;;4965185;28;20046;-73
2023/10/05 08:21:53;;;;;;;0.95;0.17;;;15.60;99.90;;;;;;4972075;28;20048;-73
2023/10/05 08:24:23;;;;;;;2.65;0.55;;;15.60;99.90;;;;;;4965873;28;20045;-73
2023/10/05 08:26:52;;;;;;;0.63;0.30;;;15.70;99.90;;;;;;4970822;28;20102;-73
2023/10/05 08:29:22;;;;;;;0.50;0.30;;;15.70;99.90;;;;;;4969220;28;20046;-73
2023/10/05 08:31:52;;;;;;;3.03;0.32;;;15.80;99.90;;;;;;4966973;28;20038;-73
2023/10/05 08:34:21;;;;;;;3.38;0.38;;;15.90;99.90;;;;;;4962596;28;20027;-73
2023/10/05 08:36:49;;;;;;;2.72;0.60;;;15.90;99.90;;;;;;4963073;28;20106;-73
2023/10/05 08:39:16;;;;;;;2.40;0.70;;;15.90;99.90;;;;;;4968190;28;20043;-73
2023/10/05 08:41:42;;;;;;;0.68;0.45;;;15.90;99.90;;;;;;4966881;28;20047;-73
2023/10/05 08:44:30;;;;;;;1.65;0.30;;;15.90;99.90;;;;;;4986054;28;20051;-73
2023/10/05 08:46:58;;;;;;;2.33;0.43;;;16.00;99.90;;;;;;4983083;28;20031;-73
2023/10/05 08:49:26;;;;;;;2.85;0.43;;;16.10;99.90;;;;;;4976962;28;20027;-73
2023/10/05 08:51:52;;;;;;;1.55;0.40;;;16.20;99.90;;;;;;4981780;28;20101;-73
2023/10/05 08:54:21;;;;;;;1.20;0.32;;;16.30;99.90;;;;;;4973066;28;20050;-73
2023/10/05 08:56:48;;;;;;;1.77;0.28;;;16.30;99.90;;;;;;4965338;28;20042;-73
2023/10/05 08:59:14;;;;;;;2.53;0.20;;;16.30;99.90;;;;;;4973346;28;20073;-73
2023/10/05 09:01:46;;;;;;;1.15;0.15;;;16.30;99.90;;;;;;4974273;28;20102;-73
2023/10/05 09:06:47;;;;;;;4.22;0.20;;;16.20;99.90;;;;;;4961513;28;20043;-73
2023/10/05 09:09:15;;;;;;;1.08;0.43;;;16.20;99.90;;;;;;4959130;28;20018;-73
2023/10/05 09:11:42;;;;;;;2.95;0.63;;;16.20;99.90;;;;;;4957613;28;20046;-73
2023/10/05 09:14:12;;;;;;;0.95;0.22;;;16.20;99.90;;;;;;4953502;28;20035;-73
2023/10/05 09:16:47;;;;;;;0.77;0.15;;;16.20;99.90;;;;;;4978107;28;20044;-73
2023/10/05 09:19:25;;;;;;;;;;;16.20;99.90;;;;;;4963129;28;20039;-73
2023/10/05 09:22:10;;;;;;;2.88;0.20;;;16.20;99.90;;;;;;4964072;28;19965;-73
2023/10/05 09:24:37;;;;;;;1.80;0.32;;;16.30;99.90;;;;;;4960148;28;20051;-73
2023/10/05 09:27:12;;;;;;;2.20;0.30;;;16.40;99.90;;;;;;4961347;28;20035;-73
2023/10/05 09:29:40;;;;;;;3.63;0.98;;;16.50;99.90;;;;;;4983081;28;20097;-73
2023/10/05 09:32:11;;;;;;;4.25;0.50;;;16.60;99.90;;;;;;4960659;28;20031;-73
2023/10/05 09:34:38;;;;;;;0.73;0.32;;;16.70;99.90;;;;;;4966236;28;20484;-72
2023/10/05 09:37:05;;;;;;;3.15;0.60;;;16.70;99.90;;;;;;4959005;28;20522;-72
2023/10/05 09:39:53;;;;;;;2.90;0.32;;;16.80;99.90;;;;;;4963880;28;20050;-73
2023/10/05 09:42:26;;;;;;;4.45;0.40;;;16.90;99.90;;;;;;4973771;28;20047;-73
2023/10/05 09:44:53;;;;;;;2.22;0.38;;;17.00;99.90;;;;;;4984791;28;20074;-73
2023/10/05 09:47:38;;;;;;;2.13;0.38;;;17.10;99.90;;;;;;4954090;28;20043;-73
2023/10/05 09:50:13;;;;;;;2.22;0.43;;;17.10;99.90;;;;;;4970679;28;20038;-73
2023/10/05 09:52:46;;;;;;;1.63;0.30;;;17.10;99.90;;;;;;4954247;28;20046;-73
2023/10/05 09:55:13;;;;;;;6.88;0.43;;;17.10;99.90;;;;;;4966689;28;20496;-73
2023/10/05 09:57:46;;;;;;;2.03;0.22;;;17.00;99.90;;;;;;4941675;28;20038;-73
2023/10/05 10:01:10;;;;;;;1.50;0.50;;;17.00;99.90;;;;;;4959277;28;20425;-73
2023/10/05 10:03:01;;;;;;;3.25;0.63;;;17.00;99.90;;;;;;4936444;28;20046;-73
2023/10/05 10:05:48;;;;;;;4.65;0.93;;;16.90;99.90;;;;;;4970455;28;20031;-73
2023/10/05 10:08:30;;;;;;;2.60;0.50;;;16.90;99.90;;;;;;4956249;28;20043;-73
2023/10/05 10:11:03;;;;;;;0.47;0.20;;;16.80;99.90;;;;;;4963586;28;20496;-73
2023/10/05 10:13:37;;;;;;;3.10;0.60;;;16.80;99.90;;;;;;4967765;28;20035;-73
2023/10/05 10:16:21;;;;;;;1.65;0.35;;;16.80;99.90;;;;;;4959201;28;20039;-73
2023/10/05 10:18:47;;;;;;;0.77;0.40;;;16.90;99.90;;;;;;4972458;28;20070;-73
2023/10/05 10:21:34;;;;;;;0.40;0.10;;;16.80;99.90;;;;;;4958610;28;20114;-73
2023/10/05 10:24:07;;;;;;;1.95;0.10;;;16.80;99.90;;;;;;4953896;28;20130;-73
2023/10/05 10:26:39;;;;;;;0.70;0.20;;;16.90;99.90;;;;;;4976781;28;20065;-73
2023/10/05 10:29:11;;;;;;;0.88;0.28;;;16.80;99.90;;;;;;4959540;28;20038;-73
2023/10/05 10:31:47;;;;;;;2.03;0.47;;;16.80;99.90;;;;;;4972123;28;20044;-73
2023/10/05 10:34:41;;;;;;;2.63;0.60;;;16.70;99.90;;;;;;4955833;28;20045;-73
2023/10/05 10:37:30;;;;;;;4.72;0.50;;;16.70;99.90;;;;;;4956329;28;20042;-73
2023/10/05 10:39:59;;;;;;;4.85;0.55;;;16.70;99.90;;;;;;4957080;28;20035;-74
2023/10/05 10:45:41;;;;;;;0.98;0.52;;;17.00;99.90;;;;;;4932010;29;20063;-73
2023/10/05 10:48:19;;;;;;;3.10;0.45;;;17.20;99.90;;;;;;4921471;29;20043;-72
2023/10/05 10:50:47;;;;;;;0.52;0.25;;;17.20;99.90;;;;;;4943249;28;20392;-73
2023/10/05 10:53:17;;;;;;;0.95;0.30;;;17.20;99.90;;;;;;4920457;29;20040;-73
2023/10/05 10:56:48;;;;;;;3.53;0.43;;;17.10;99.90;;;;;;4925575;29;20107;-73
2023/10/05 10:58:56;;;;;;;1.67;0.40;;;17.00;99.90;;;;;;4914757;29;20048;-73
2023/10/05 11:01:28;;;;;;;1.30;0.40;;;17.00;99.90;;;;;;4917189;29;20497;-70
2023/10/05 11:04:00;;;;;;;0.32;0.10;;;16.90;99.90;;;;;;4910696;29;20127;-69
2023/10/05 11:06:26;;;;;;;6.13;0.63;;;16.70;99.90;;;;;;4922719;29;20700;-68
2023/10/05 11:08:52;;;;;;;0.43;0.10;;;16.60;99.90;;;;;;4924704;29;20062;-68
2023/10/05 11:11:23;;;;;;;1.98;0.22;;;16.40;99.90;;;;;;4926475;29;20167;-68
2023/10/05 11:14:05;;;;;;;1.35;0.35;;;16.30;99.90;;;;;;4928834;29;20044;-69
2023/10/05 11:16:43;;;;;;;0.45;0.20;;;16.10;99.90;;;;;;4930395;29;20055;-70
2023/10/05 11:19:13;;;;;;;4.80;0.90;;;16.00;99.90;;;;;;4926617;29;20058;-69
2023/10/05 11:21:45;;;;;;;0.40;0.17;;;15.90;99.90;;;;;;4927559;29;20260;-68
2023/10/05 11:24:15;;;;;;;2.15;0.40;;;15.80;99.90;;;;;;4926413;29;20070;-70
2023/10/05 11:29:33;;;;;;;0.90;0.30;;;15.80;99.90;;;;;;4921541;29;20048;-70
2023/10/05 11:32:03;;;;;;;1.15;0.20;;;15.80;99.90;;;;;;4943059;28;20492;-69
2023/10/05 11:34:29;;;;;;;0.75;0.40;;;15.70;99.90;;;;;;4930709;28;20039;-70
2023/10/05 11:36:58;;;;;;;2.70;0.40;;;15.80;99.90;;;;;;4927747;29;20043;-69
2023/10/05 11:39:27;;;;;;;2.75;0.40;;;15.80;99.90;;;;;;4925441;29;20048;-70
2023/10/05 11:41:58;;;;;;;1.75;0.30;;;15.80;99.90;;;;;;4912266;29;20039;-69
2023/10/05 11:44:24;;;;;;;1.40;0.30;;;16.60;99.90;;;;;;4938413;28;20086;-69
2023/10/05 11:46:53;;;;;;;0.52;0.35;;;17.30;99.90;;;;;;4952350;28;20051;-69
2023/10/05 11:49:20;;;;;;;0.50;0.20;;;17.30;99.90;;;;;;4939151;28;20039;-69
2023/10/05 11:51:59;;;;;;;0.75;0.20;;;17.40;99.90;;;;;;4966384;28;20144;-69
2023/10/05 11:54:25;;;;;;;1.30;0.20;;;18.10;99.90;;;;;;4945651;28;20118;-69
2023/10/05 11:56:53;;;;;;;3.03;0.55;;;18.50;99.90;;;;;;4947903;28;20070;-69
2023/10/05 11:59:29;;;;;;;2.08;0.60;;;19.10;99.90;;;;;;4926661;28;20051;-70
2023/10/05 12:01:55;;;;;;;2.83;0.55;;;19.80;99.90;;;;;;4938687;28;20069;-69
2023/10/05 12:04:23;;;;;;;5.93;0.77;;;19.50;99.90;;;;;;4945932;28;20050;-69
2023/10/05 12:06:58;;;;;;;1.08;0.30;;;19.00;99.90;;;;;;4960271;28;20125;-69
2023/10/05 12:09:31;;;;;;;0.85;0.35;;;18.70;99.90;;;;;;4947919;28;20129;-69
2023/10/05 12:11:58;;;;;;;1.40;0.80;;;19.30;99.90;;;;;;4959841;28;20192;-69
2023/10/05 12:14:25;;;;;;;1.60;0.30;;;20.20;99.90;;;;;;4968143;28;20058;-70
2023/10/05 12:16:52;;;;;;;3.30;0.68;;;20.20;99.90;;;;;;4946119;28;20083;-70
2023/10/05 12:19:27;;;;;;;0.82;0.20;;;19.80;99.90;;;;;;4953508;28;20043;-70
2023/10/05 12:21:57;;;;;;;1.95;0.38;;;20.20;99.90;;;;;;4947346;28;20069;-70
2023/10/05 12:24:23;;;;;;;2.67;0.70;;;21.00;99.90;;;;;;4964786;28;20140;-70
2023/10/05 12:26:50;;;;;;;2.28;0.20;;;21.70;99.90;;;;;;4961861;28;20113;-70
2023/10/05 12:29:17;;;;;;;3.50;0.50;;;22.30;99.90;;;;;;4945447;28;20054;-71
2023/10/05 12:31:44;;;;;;;0.95;0.20;;;22.60;99.90;;;;;;4944879;28;20043;-70
2023/10/05 12:34:16;;;;;;;1.20;0.20;;;22.50;99.90;;;;;;4949938;28;20479;-70
2023/10/05 12:36:51;;;;;;;0.50;0.20;;;22.00;99.90;;;;;;4939214;28;20047;-70
2023/10/05 12:39:18;;;;;;;2.03;0.28;;;21.30;99.90;;;;;;4967523;28;20046;-71
2023/10/05 12:41:46;;;;;;;0.43;0.10;;;20.70;99.90;;;;;;4946226;28;20038;-71
2023/10/05 12:44:15;;;;;;;3.40;0.73;;;20.70;99.90;;;;;;4951616;28;20384;-71
2023/10/05 12:46:42;;;;;;;1.60;0.10;;;20.90;99.90;;;;;;4963040;28;20055;-70
2023/10/05 12:49:09;;;;;;;0.85;0.30;;;20.90;99.90;;;;;;4949838;28;20035;-70
2023/10/05 12:51:38;;;;;;;0.50;0.10;;;20.60;99.90;;;;;;4968732;28;20194;-70
2023/10/05 12:54:28;;;;;;;2.10;0.30;;;20.30;99.90;;;;;;4948165;28;20096;-71
2023/10/05 12:56:55;;;;;;;0.75;0.20;;;20.00;99.90;;;;;;4951153;28;20051;-71
2023/10/05 12:59:21;;;;;;;2.10;0.20;;;19.90;99.90;;;;;;4934171;28;20047;-70
2023/10/05 13:01:48;;;;;;;1.38;0.30;;;19.70;99.90;;;;;;4947693;28;20122;-71
2023/10/05 13:04:15;;;;;;;1.45;0.52;;;19.70;99.90;;;;;;4964937;28;20062;-70
2023/10/05 13:06:43;;;;;;;2.35;0.30;;;19.50;99.90;;;;;;4945794;28;20043;-71
2023/10/05 13:09:12;;;;;;;3.05;0.50;;;19.40;99.90;;;;;;4952255;28;20034;-71
2023/10/05 13:11:39;;;;;;;1.95;0.32;;;19.80;99.90;;;;;;4949270;28;20041;-71
2023/10/05 13:14:14;;;;;;;0.90;0.20;;;20.00;99.90;;;;;;4948489;28;20506;-71
2023/10/05 13:16:40;;;;;;;3.60;0.30;;;19.90;99.90;;;;;;4965831;28;20042;-71
2023/10/05 13:19:09;;;;;;;4.70;0.43;;;19.80;99.90;;;;;;4946415;28;20108;-71
2023/10/05 13:21:36;;;;;;;1.45;0.30;;;20.10;99.90;;;;;;4961856;28;20057;-71
2023/10/05 13:24:02;;;;;;;0.30;0.00;;;19.90;99.90;;;;;;4927254;28;20043;-72
2023/10/05 13:26:29;;;;;;;1.23;0.25;;;19.80;99.90;;;;;;4954080;28;20071;-71
2023/10/05 13:28:59;;;;;;;0.45;0.20;;;20.00;99.90;;;;;;4945793;28;20046;-71
2023/10/05 13:31:27;;;;;;;4.00;0.73;;;20.20;99.90;;;;;;4947064;28;20047;-71
2023/10/05 13:33:59;;;;;;;5.20;0.35;;;20.00;99.90;;;;;;4952790;28;20405;-71
2023/10/05 13:36:26;;;;;;;1.77;0.10;;;19.70;99.90;;;;;;4971981;28;20493;-70
2023/10/05 13:38:54;;;;;;;3.10;0.65;;;19.40;99.90;;;;;;4949844;28;20046;-71